Weather at Lastovo/Ubli Seaplane Terminal [CLOSED]

Public forecast

Using degrees Celsius for public forecast. Weather courtesy of forecast.io.

Closest aviation weather report (METAR) to Lastovo/Ubli Seaplane Terminal

Report is more than 6 hours old.

Closest report is Brač Airport, 33.0 nm (61.2 km) N.

2024/05/22 15:30 (retrieved 7 hours ago)

LDSB 221530Z 31011KT 270V350 CAVOK 20/06 Q1013

Closest aviation forecast (TAF) to Lastovo/Ubli Seaplane Terminal

Forecast is more than 6 hours old.

Closest forecast is Brač Airport, 33.0 nm (61.2 km) N.

2024/05/22 16:03 Ammendment (retrieved 6 hours ago)

TAF AMD LDSB 221601Z 2216/2312 CNL